Terminal Aerodrome Forecast
Issued by NWS

Home | Current Version | Previous Version | Text Only | Print | Product List | Glossary On
Versions: 1 2 3 4 5 6 7 8 9 10 11 12 13
000
FTUS43 KMPX 032159 AAA
TAFRWF
TAF AMD
KRWF 032159Z 0322/0418 35015G25KT P6SM VCSH BKN070
     FM040100 35009KT P6SM SCT060
     FM040600 35006KT P6SM SKC
     FM041300 04008KT P6SM BKN250=

USA.gov is the U.S. government's official web portal to all federal, state and local government web resources and services.